Pleasant View, CO (81331)

7:33 PM MST on February 11, 2016 (GMT -0700)
E. G. Merritt Ranch, Arriola | | Change Station
CLOSE
Current Station
Personal Weather Station
Location: Arriola, CO
Elevation: 6591 ft
Nearby Weather Stations

Elev 6591 ft 37.45 °N, 108.69 °W | Updated 9 minutes ago

Clear
Clear
36.0 °F
Feels Like 29 °F
N
8.9
Wind Variable Wind from WNW

Today
High -- | Low -- °F
--% Chance of Precip.
Yesterday
High -- | Low -- °F
Precip. -- in
Pressure 30.45 in
Visibility 10.0 miles
Clouds Clear
Windchill 29 °F
Dew Point 28 °F
Humidity 74%
Rainfall 0.00 in
Snow Depth Not available.
7:09 AM 5:49 PM
Waxing Crescent, 16% visible
METAR KCEZ 120153Z AUTO 06006KT 10SM CLR 00/M04 A3037 RMK AO2 SLP310 T00001039
Pressure 30.45 in
Visibility 10.0 miles
Clouds Clear
Windchill 29 °F
Dew Point 28 °F
Humidity 74%
Rainfall 0.00 in
Snow Depth Not available.
7:09 AM 5:49 PM
Waxing Crescent, 16% visible
METAR KCEZ 120153Z AUTO 06006KT 10SM CLR 00/M04 A3037 RMK AO2 SLP310 T00001039

10-Day Weather Forecast

Almanac

Astronomy

Feb. 11, 2016 Rise Set
Actual Time
Civil Twilight
Nautical Twilight
Astronomical Twilight
Moon
Length of Visible Light
Length of Day
Tomorrow will be .
, % of the Moon is Illuminated

Today's Extremes

State Highs State Lows

Community

WunderPhotos

Upload Photos

1,892,226 photos uploaded!

WunderBlog® & News

Nearby

Air Quality

  Air Quality AQ Index Pollutant
Not available.

Snow Depth

Station Depth Elevation

Earthquake Activity

City Distance Mag. Time & Date
Minimum magnitude displayed is 2.5.

Coastal Water Temperatures

Place Temperature

Stations

Nearby Weather Stations

Station Location Temp. Windchill Dew Point Humidity Wind Precip. Elev Updated Type
                   

Watches & Warnings

There are currently no watches in effect.